sensor_id;sensor_type;location;lat;lon;timestamp;pressure;altitude;pressure_sealevel;temperature;humidity
26775;BME280;14362;51.902;7.626;2023-04-01T00:01:27;98725.59;;;10.06;100.00
26775;BME280;14362;51.902;7.626;2023-04-01T00:05:28;98720.03;;;10.06;100.00
26775;BME280;14362;51.902;7.626;2023-04-01T00:09:30;98718.50;;;10.09;100.00
26775;BME280;14362;51.902;7.626;2023-04-01T00:13:31;98721.56;;;10.04;100.00
26775;BME280;14362;51.902;7.626;2023-04-01T00:17:34;98720.69;;;10.00;100.00
26775;BME280;14362;51.902;7.626;2023-04-01T00:21:36;98719.44;;;9.97;100.00
26775;BME280;14362;51.902;7.626;2023-04-01T00:25:37;98711.09;;;9.97;100.00
26775;BME280;14362;51.902;7.626;2023-04-01T00:29:41;98716.75;;;10.01;100.00
26775;BME280;14362;51.902;7.626;2023-04-01T00:33:44;98717.44;;;9.98;100.00
26775;BME280;14362;51.902;7.626;2023-04-01T00:37:46;98719.44;;;9.97;100.00
26775;BME280;14362;51.902;7.626;2023-04-01T00:41:48;98714.59;;;9.94;100.00
26775;BME280;14362;51.902;7.626;2023-04-01T00:45:49;98708.66;;;9.96;100.00
26775;BME280;14362;51.902;7.626;2023-04-01T00:49:53;98710.66;;;9.95;100.00
26775;BME280;14362;51.902;7.626;2023-04-01T00:53:58;98707.13;;;9.98;100.00
26775;BME280;14362;51.902;7.626;2023-04-01T00:58:03;98703.47;;;9.94;100.00
26775;BME280;14362;51.902;7.626;2023-04-01T01:02:08;98710.22;;;9.93;100.00
26775;BME280;14362;51.902;7.626;2023-04-01T01:06:20;98708.22;;;9.94;100.00
26775;BME280;14362;51.902;7.626;2023-04-01T01:10:29;98703.53;;;9.98;100.00
26775;BME280;14362;51.902;7.626;2023-04-01T01:14:38;98698.69;;;9.95;100.00
26775;BME280;14362;51.902;7.626;2023-04-01T01:18:47;98695.47;;;9.93;100.00
26775;BME280;14362;51.902;7.626;2023-04-01T01:23:15;98698.19;;;9.89;100.00
26775;BME280;14362;51.902;7.626;2023-04-01T01:27:23;98693.13;;;9.95;100.00
26775;BME280;14362;51.902;7.626;2023-04-01T01:31:29;98699.38;;;9.88;100.00
26775;BME280;14362;51.902;7.626;2023-04-01T01:35:37;98703.41;;;9.91;100.00
26775;BME280;14362;51.902;7.626;2023-04-01T01:39:40;98699.75;;;9.87;100.00
26775;BME280;14362;51.902;7.626;2023-04-01T01:43:46;98706.19;;;9.91;100.00
26775;BME280;14362;51.902;7.626;2023-04-01T01:47:50;98700.53;;;9.87;100.00
26775;BME280;14362;51.902;7.626;2023-04-01T01:51:53;98698.50;;;9.84;100.00
26775;BME280;14362;51.902;7.626;2023-04-01T01:55:55;98694.53;;;9.85;100.00
26775;BME280;14362;51.902;7.626;2023-04-01T02:00:00;98698.50;;;9.84;100.00
26775;BME280;14362;51.902;7.626;2023-04-01T02:04:03;98700.03;;;9.82;100.00
26775;BME280;14362;51.902;7.626;2023-04-01T02:08:10;98710.00;;;9.83;100.00
26775;BME280;14362;51.902;7.626;2023-04-01T02:12:15;98704.81;;;9.81;100.00
26775;BME280;14362;51.902;7.626;2023-04-01T02:16:20;98717.47;;;9.79;100.00
26775;BME280;14362;51.902;7.626;2023-04-01T02:20:25;98708.34;;;9.78;100.00
26775;BME280;14362;51.902;7.626;2023-04-01T02:24:33;98702.88;;;9.85;100.00
26775;BME280;14362;51.902;7.626;2023-04-01T02:28:37;98700.03;;;9.82;100.00
26775;BME280;14362;51.902;7.626;2023-04-01T02:32:40;98695.22;;;9.79;100.00
26775;BME280;14362;51.902;7.626;2023-04-01T02:36:42;98693.25;;;9.79;100.00
26775;BME280;14362;51.902;7.626;2023-04-01T02:40:49;98685.75;;;9.83;100.00
26775;BME280;14362;51.902;7.626;2023-04-01T02:44:51;98695.22;;;9.79;100.00
26775;BME280;14362;51.902;7.626;2023-04-01T02:48:52;98689.22;;;9.77;100.00
26775;BME280;14362;51.902;7.626;2023-04-01T02:52:54;98688.13;;;9.81;100.00
26775;BME280;14362;51.902;7.626;2023-04-01T02:56:57;98689.31;;;9.80;100.00
26775;BME280;14362;51.902;7.626;2023-04-01T03:00:59;98695.16;;;9.75;100.00
26775;BME280;14362;51.902;7.626;2023-04-01T03:05:00;98700.34;;;9.77;100.00
26775;BME280;14362;51.902;7.626;2023-04-01T03:09:01;98696.63;;;9.69;100.00
26775;BME280;14362;51.902;7.626;2023-04-01T03:13:05;98699.78;;;9.68;100.00
26775;BME280;14362;51.902;7.626;2023-04-01T03:17:06;98703.44;;;9.72;100.00
26775;BME280;14362;51.902;7.626;2023-04-01T03:21:16;98703.28;;;9.65;100.00
26775;BME280;14362;51.902;7.626;2023-04-01T03:25:18;98706.50;;;9.67;100.00
26775;BME280;14362;51.902;7.626;2023-04-01T03:29:20;98703.28;;;9.65;100.00
26775;BME280;14362;51.902;7.626;2023-04-01T03:33:22;98713.53;;;9.61;100.00
26775;BME280;14362;51.902;7.626;2023-04-01T03:37:23;98708.41;;;9.63;100.00
26775;BME280;14362;51.902;7.626;2023-04-01T03:41:25;98719.09;;;9.61;100.00
26775;BME280;14362;51.902;7.626;2023-04-01T03:45:28;98712.75;;;9.60;100.00
26775;BME280;14362;51.902;7.626;2023-04-01T03:49:30;98720.25;;;9.60;100.00
26775;BME280;14362;51.902;7.626;2023-04-01T03:53:32;98719.91;;;9.61;100.00
26775;BME280;14362;51.902;7.626;2023-04-01T03:57:33;98719.09;;;9.61;100.00
26775;BME280;14362;51.902;7.626;2023-04-01T04:01:36;98720.63;;;9.58;100.00
26775;BME280;14362;51.902;7.626;2023-04-01T04:05:38;98717.84;;;9.58;100.00
26775;BME280;14362;51.902;7.626;2023-04-01T04:09:46;98722.25;;;9.59;100.00
26775;BME280;14362;51.902;7.626;2023-04-01T04:13:48;98732.56;;;9.59;100.00
26775;BME280;14362;51.902;7.626;2023-04-01T04:17:50;98741.72;;;9.59;100.00
26775;BME280;14362;51.902;7.626;2023-04-01T04:21:52;98743.34;;;9.60;100.00
26775;BME280;14362;51.902;7.626;2023-04-01T04:25:55;98744.50;;;9.59;100.00
26775;BME280;14362;51.902;7.626;2023-04-01T04:29:57;98746.47;;;9.59;100.00
26775;BME280;14362;51.902;7.626;2023-04-01T04:34:00;98752.03;;;9.59;100.00
26775;BME280;14362;51.902;7.626;2023-04-01T04:38:01;98748.06;;;9.60;100.00
26775;BME280;14362;51.902;7.626;2023-04-01T04:42:03;98753.13;;;9.54;100.00
26775;BME280;14362;51.902;7.626;2023-04-01T04:46:05;98754.72;;;9.55;100.00
26775;BME280;14362;51.902;7.626;2023-04-01T04:50:09;98751.88;;;9.52;100.00
26775;BME280;14362;51.902;7.626;2023-04-01T04:54:11;98755.84;;;9.51;100.00
26775;BME280;14362;51.902;7.626;2023-04-01T04:58:13;98768.56;;;9.52;100.00
26775;BME280;14362;51.902;7.626;2023-04-01T05:02:14;98768.13;;;9.50;100.00
26775;BME280;14362;51.902;7.626;2023-04-01T05:06:17;98771.69;;;9.50;100.00
26775;BME280;14362;51.902;7.626;2023-04-01T05:10:19;98767.31;;;9.49;100.00
26775;BME280;14362;51.902;7.626;2023-04-01T05:14:21;98775.75;;;9.53;100.00
26775;BME280;14362;51.902;7.626;2023-04-01T05:18:23;98772.53;;;9.51;100.00
26775;BME280;14362;51.902;7.626;2023-04-01T05:22:25;98780.56;;;9.56;100.00
26775;BME280;14362;51.902;7.626;2023-04-01T05:26:27;98777.34;;;9.54;100.00
26775;BME280;14362;51.902;7.626;2023-04-01T05:30:28;98780.94;;;9.54;100.00
26775;BME280;14362;51.902;7.626;2023-04-01T05:34:30;98789.72;;;9.56;100.00
26775;BME280;14362;51.902;7.626;2023-04-01T05:38:32;98779.38;;;9.57;100.00
26775;BME280;14362;51.902;7.626;2023-04-01T05:42:34;98794.56;;;9.59;100.00
26775;BME280;14362;51.902;7.626;2023-04-01T05:46:35;98786.66;;;9.61;100.00
26775;BME280;14362;51.902;7.626;2023-04-01T05:50:39;98798.19;;;9.63;100.00
26775;BME280;14362;51.902;7.626;2023-04-01T05:54:42;98802.25;;;9.66;100.00
26775;BME280;14362;51.902;7.626;2023-04-01T05:58:46;98794.34;;;9.68;100.00
26775;BME280;14362;51.902;7.626;2023-04-01T06:02:51;98798.00;;;9.72;100.00
26775;BME280;14362;51.902;7.626;2023-04-01T06:06:52;98801.13;;;9.70;100.00
26775;BME280;14362;51.902;7.626;2023-04-01T06:11:16;98807.94;;;9.73;100.00
26775;BME280;14362;51.902;7.626;2023-04-01T06:15:32;98817.56;;;9.75;100.00
26775;BME280;14362;51.902;7.626;2023-04-01T06:19:40;98816.38;;;9.76;100.00
26775;BME280;14362;51.902;7.626;2023-04-01T06:23:56;98821.66;;;9.81;100.00
26775;BME280;14362;51.902;7.626;2023-04-01T06:28:20;98831.31;;;9.87;100.00
26775;BME280;14362;51.902;7.626;2023-04-01T06:32:47;98832.13;;;9.88;100.00
26775;BME280;14362;51.902;7.626;2023-04-01T06:37:03;98832.94;;;9.88;100.00
26775;BME280;14362;51.902;7.626;2023-04-01T06:45:49;98842.75;;;10.01;100.00
26775;BME280;14362;51.902;7.626;2023-04-01T06:49:57;98843.31;;;10.07;100.00
26775;BME280;14362;51.902;7.626;2023-04-01T06:54:04;98836.41;;;10.19;100.00
26775;BME280;14362;51.902;7.626;2023-04-01T06:58:13;98845.31;;;10.28;100.00
26775;BME280;14362;51.902;7.626;2023-04-01T07:02:24;98849.88;;;10.36;100.00
26775;BME280;14362;51.902;7.626;2023-04-01T07:06:31;98847.28;;;10.47;100.00
26775;BME280;14362;51.902;7.626;2023-04-01T07:10:35;98848.50;;;10.49;100.00
26775;BME280;14362;51.902;7.626;2023-04-01T07:14:44;98849.53;;;10.60;100.00
26775;BME280;14362;51.902;7.626;2023-04-01T07:18:51;98857.47;;;10.58;100.00
26775;BME280;14362;51.902;7.626;2023-04-01T07:22:58;98852.56;;;10.52;100.00
26775;BME280;14362;51.902;7.626;2023-04-01T07:27:00;98858.94;;;10.52;100.00
26775;BME280;14362;51.902;7.626;2023-04-01T07:31:11;98870.16;;;10.56;100.00
26775;BME280;14362;51.902;7.626;2023-04-01T07:35:23;98861.28;;;10.50;100.00
26775;BME280;14362;51.902;7.626;2023-04-01T07:39:32;98874.69;;;10.45;100.00
26775;BME280;14362;51.902;7.626;2023-04-01T07:43:45;98872.13;;;10.55;100.00
26775;BME280;14362;51.902;7.626;2023-04-01T07:48:02;98878.84;;;10.54;100.00
26775;BME280;14362;51.902;7.626;2023-04-01T07:52:12;98883.75;;;10.61;100.00
26775;BME280;14362;51.902;7.626;2023-04-01T07:56:19;98889.41;;;10.64;100.00
26775;BME280;14362;51.902;7.626;2023-04-01T08:00:25;98890.25;;;10.68;100.00
26775;BME280;14362;51.902;7.626;2023-04-01T08:04:40;98898.63;;;10.68;100.00
26775;BME280;14362;51.902;7.626;2023-04-01T08:08:58;98902.72;;;10.74;100.00
26775;BME280;14362;51.902;7.626;2023-04-01T08:13:08;98899.56;;;10.76;100.00
26775;BME280;14362;51.902;7.626;2023-04-01T08:17:16;98909.19;;;10.78;100.00
26775;BME280;14362;51.902;7.626;2023-04-01T08:21:23;98906.16;;;10.87;100.00
26775;BME280;14362;51.902;7.626;2023-04-01T08:25:29;98915.41;;;10.91;100.00
26775;BME280;14362;51.902;7.626;2023-04-01T08:29:32;98910.66;;;10.95;100.00
26775;BME280;14362;51.902;7.626;2023-04-01T08:33:36;98921.41;;;10.93;100.00
26775;BME280;14362;51.902;7.626;2023-04-01T08:37:40;98916.13;;;10.88;100.00
26775;BME280;14362;51.902;7.626;2023-04-01T08:42:00;98931.69;;;10.89;100.00
26775;BME280;14362;51.902;7.626;2023-04-01T08:46:15;98929.78;;;10.93;100.00
26775;BME280;14362;51.902;7.626;2023-04-01T08:50:39;98934.53;;;10.92;100.00
26775;BME280;14362;51.902;7.626;2023-04-01T08:55:01;98932.91;;;10.91;100.00
26775;BME280;14362;51.902;7.626;2023-04-01T08:59:21;98940.97;;;10.96;100.00
26775;BME280;14362;51.902;7.626;2023-04-01T09:03:38;98943.09;;;11.03;100.00
26775;BME280;14362;51.902;7.626;2023-04-01T09:07:51;98945.81;;;10.99;100.00
26775;BME280;14362;51.902;7.626;2023-04-01T09:12:16;98958.94;;;10.99;100.00
26775;BME280;14362;51.902;7.626;2023-04-01T09:16:46;98953.06;;;11.04;100.00
26775;BME280;14362;51.902;7.626;2023-04-01T09:21:04;98953.84;;;11.04;100.00
26775;BME280;14362;51.902;7.626;2023-04-01T09:25:53;98959.03;;;11.24;100.00
26775;BME280;14362;51.902;7.626;2023-04-01T09:30:27;98968.72;;;11.30;100.00
26775;BME280;14362;51.902;7.626;2023-04-01T09:34:54;98965.53;;;11.32;100.00
26775;BME280;14362;51.902;7.626;2023-04-01T09:38:57;98961.69;;;11.40;100.00
26775;BME280;14362;51.902;7.626;2023-04-01T09:43:22;98966.91;;;11.41;100.00
26775;BME280;14362;51.902;7.626;2023-04-01T09:47:38;98977.75;;;11.46;100.00
26775;BME280;14362;51.902;7.626;2023-04-01T09:51:53;98975.72;;;11.43;100.00
26775;BME280;14362;51.902;7.626;2023-04-01T10:00:53;98981.72;;;11.45;100.00
26775;BME280;14362;51.902;7.626;2023-04-01T10:05:34;98989.34;;;11.48;100.00
26775;BME280;14362;51.902;7.626;2023-04-01T10:10:06;98985.25;;;11.42;100.00
26775;BME280;14362;51.902;7.626;2023-04-01T10:14:29;98991.31;;;11.48;100.00
26775;BME280;14362;51.902;7.626;2023-04-01T10:19:07;98992.28;;;11.55;100.00
26775;BME280;14362;51.902;7.626;2023-04-01T10:23:31;98991.91;;;11.57;100.00
26775;BME280;14362;51.902;7.626;2023-04-01T10:27:57;98999.16;;;11.61;100.00
26775;BME280;14362;51.902;7.626;2023-04-01T10:36:52;98998.59;;;12.01;100.00
26775;BME280;14362;51.902;7.626;2023-04-01T10:41:14;99003.28;;;12.19;100.00
26775;BME280;14362;51.902;7.626;2023-04-01T10:45:26;98998.44;;;12.42;100.00
26775;BME280;14362;51.902;7.626;2023-04-01T10:49:44;98992.56;;;12.50;100.00
26775;BME280;14362;51.902;7.626;2023-04-01T10:54:13;98993.94;;;12.63;100.00
26775;BME280;14362;51.902;7.626;2023-04-01T10:58:56;98992.28;;;12.59;100.00
26775;BME280;14362;51.902;7.626;2023-04-01T11:17:26;99001.56;;;12.37;100.00
26775;BME280;14362;51.902;7.626;2023-04-01T11:21:54;99018.13;;;12.23;100.00
26775;BME280;14362;51.902;7.626;2023-04-01T11:26:07;99028.00;;;12.17;100.00
26775;BME280;14362;51.902;7.626;2023-04-01T11:30:16;99028.00;;;12.17;100.00
26775;BME280;14362;51.902;7.626;2023-04-01T11:34:32;99034.06;;;12.23;100.00
26775;BME280;14362;51.902;7.626;2023-04-01T11:38:54;99037.75;;;12.30;100.00
26775;BME280;14362;51.902;7.626;2023-04-01T11:43:01;99028.31;;;12.38;100.00
26775;BME280;14362;51.902;7.626;2023-04-01T11:47:18;99036.09;;;12.51;100.00
26775;BME280;14362;51.902;7.626;2023-04-01T11:51:34;99047.31;;;12.55;100.00
26775;BME280;14362;51.902;7.626;2023-04-01T11:55:47;99053.69;;;12.55;100.00
26775;BME280;14362;51.902;7.626;2023-04-01T11:59:58;99060.44;;;12.51;100.00
26775;BME280;14362;51.902;7.626;2023-04-01T12:08:44;99057.56;;;12.44;100.00
26775;BME280;14362;51.902;7.626;2023-04-01T12:12:59;99067.63;;;12.52;100.00
26775;BME280;14362;51.902;7.626;2023-04-01T12:17:07;99064.94;;;12.59;100.00
26775;BME280;14362;51.902;7.626;2023-04-01T12:21:20;99078.59;;;12.64;100.00
26775;BME280;14362;51.902;7.626;2023-04-01T12:25:35;99088.03;;;12.52;100.00
26775;BME280;14362;51.902;7.626;2023-04-01T12:30:14;99086.69;;;12.21;100.00
26775;BME280;14362;51.902;7.626;2023-04-01T12:34:41;99095.59;;;12.04;100.00
26775;BME280;14362;51.902;7.626;2023-04-01T12:38:55;99103.88;;;11.97;100.00
26775;BME280;14362;51.902;7.626;2023-04-01T12:43:22;99109.31;;;11.90;100.00
26775;BME280;14362;51.902;7.626;2023-04-01T12:47:42;99114.59;;;11.95;100.00
26775;BME280;14362;51.902;7.626;2023-04-01T12:52:05;99116.13;;;11.92;100.00
26775;BME280;14362;51.902;7.626;2023-04-01T12:56:14;99119.75;;;11.93;100.00
26775;BME280;14362;51.902;7.626;2023-04-01T13:00:34;99124.00;;;12.09;100.00
26775;BME280;14362;51.902;7.626;2023-04-01T13:04:56;99128.59;;;12.21;100.00
26775;BME280;14362;51.902;7.626;2023-04-01T13:09:13;99133.13;;;12.28;100.00
26775;BME280;14362;51.902;7.626;2023-04-01T13:17:41;99142.56;;;12.21;100.00
26775;BME280;14362;51.902;7.626;2023-04-01T13:21:54;99145.75;;;12.19;100.00
26775;BME280;14362;51.902;7.626;2023-04-01T13:26:06;99159.16;;;12.32;100.00
26775;BME280;14362;51.902;7.626;2023-04-01T13:30:24;99158.06;;;12.40;100.00
26775;BME280;14362;51.902;7.626;2023-04-01T13:34:35;99160.81;;;12.37;100.00
26775;BME280;14362;51.902;7.626;2023-04-01T13:38:52;99159.25;;;12.39;100.00
26775;BME280;14362;51.902;7.626;2023-04-01T13:43:02;99161.56;;;12.34;100.00
26775;BME280;14362;51.902;7.626;2023-04-01T13:47:20;99168.44;;;12.40;100.00
26775;BME280;14362;51.902;7.626;2023-04-01T13:51:43;99173.22;;;12.17;100.00
26775;BME280;14362;51.902;7.626;2023-04-01T14:00:30;99174.34;;;12.35;100.00
26775;BME280;14362;51.902;7.626;2023-04-01T14:04:44;99184.91;;;12.23;100.00
26775;BME280;14362;51.902;7.626;2023-04-01T14:08:58;99190.72;;;12.14;100.00
26775;BME280;14362;51.902;7.626;2023-04-01T14:13:10;99192.66;;;12.10;100.00
26775;BME280;14362;51.902;7.626;2023-04-01T14:17:42;99192.66;;;12.10;100.00
26775;BME280;14362;51.902;7.626;2023-04-01T14:21:54;99203.81;;;12.10;100.00
26775;BME280;14362;51.902;7.626;2023-04-01T14:26:30;99209.41;;;12.10;100.00
26775;BME280;14362;51.902;7.626;2023-04-01T14:30:46;99214.63;;;12.12;100.00
26775;BME280;14362;51.902;7.626;2023-04-01T14:34:59;99217.78;;;12.10;100.00
26775;BME280;14362;51.902;7.626;2023-04-01T14:39:18;99227.78;;;12.11;100.00
26775;BME280;14362;51.902;7.626;2023-04-01T14:47:54;99235.41;;;12.14;100.00
26775;BME280;14362;51.902;7.626;2023-04-01T14:52:04;99237.19;;;12.22;100.00
26775;BME280;14362;51.902;7.626;2023-04-01T14:56:09;99244.00;;;12.24;100.00
26775;BME280;14362;51.902;7.626;2023-04-01T15:00:13;99244.06;;;12.28;100.00
26775;BME280;14362;51.902;7.626;2023-04-01T15:04:29;99251.13;;;12.22;100.00
26775;BME280;14362;51.902;7.626;2023-04-01T15:08:42;99249.97;;;12.23;100.00
26775;BME280;14362;51.902;7.626;2023-04-01T15:12:53;99263.19;;;12.26;100.00
26775;BME280;14362;51.902;7.626;2023-04-01T15:17:05;99268.34;;;12.24;100.00
26775;BME280;14362;51.902;7.626;2023-04-01T15:21:37;99273.59;;;12.29;100.00
26775;BME280;14362;51.902;7.626;2023-04-01T15:25:49;99281.75;;;12.37;100.00
26775;BME280;14362;51.902;7.626;2023-04-01T15:30:14;99284.28;;;12.46;100.00
26775;BME280;14362;51.902;7.626;2023-04-01T15:34:26;99298.47;;;12.56;100.00
26775;BME280;14362;51.902;7.626;2023-04-01T15:38:36;99293.69;;;12.57;100.00
26775;BME280;14362;51.902;7.626;2023-04-01T15:42:52;99296.63;;;12.64;100.00
26775;BME280;14362;51.902;7.626;2023-04-01T15:46:56;99307.47;;;12.69;100.00
26775;BME280;14362;51.902;7.626;2023-04-01T15:51:08;99316.88;;;12.80;100.00
26775;BME280;14362;51.902;7.626;2023-04-01T15:55:20;99309.53;;;12.72;100.00
26775;BME280;14362;51.902;7.626;2023-04-01T15:59:44;99315.00;;;12.65;100.00
26775;BME280;14362;51.902;7.626;2023-04-01T16:03:55;99319.81;;;12.45;100.00
26775;BME280;14362;51.902;7.626;2023-04-01T16:08:20;99335.13;;;12.51;100.00
26775;BME280;14362;51.902;7.626;2023-04-01T16:12:42;99343.88;;;12.31;100.00
26775;BME280;14362;51.902;7.626;2023-04-01T16:16:56;99352.88;;;12.21;100.00
26775;BME280;14362;51.902;7.626;2023-04-01T16:21:02;99358.19;;;12.07;100.00
26775;BME280;14362;51.902;7.626;2023-04-01T16:25:19;99370.66;;;12.13;100.00
26775;BME280;14362;51.902;7.626;2023-04-01T16:29:35;99371.25;;;12.03;100.00
26775;BME280;14362;51.902;7.626;2023-04-01T16:33:46;99380.34;;;12.00;100.00
26775;BME280;14362;51.902;7.626;2023-04-01T16:37:50;99389.53;;;12.01;100.00
26775;BME280;14362;51.902;7.626;2023-04-01T16:42:09;99398.63;;;11.79;100.00
26775;BME280;14362;51.902;7.626;2023-04-01T16:46:34;99407.59;;;11.88;100.00
26775;BME280;14362;51.902;7.626;2023-04-01T16:50:47;99420.44;;;11.92;100.00
26775;BME280;14362;51.902;7.626;2023-04-01T16:54:54;99427.91;;;11.69;100.00
26775;BME280;14362;51.902;7.626;2023-04-01T16:59:02;99436.09;;;11.78;100.00
26775;BME280;14362;51.902;7.626;2023-04-01T17:03:16;99445.72;;;11.65;100.00
26775;BME280;14362;51.902;7.626;2023-04-01T17:07:27;99448.16;;;11.51;100.00
26775;BME280;14362;51.902;7.626;2023-04-01T17:11:36;99456.91;;;11.49;100.00
26775;BME280;14362;51.902;7.626;2023-04-01T17:15:43;99469.66;;;11.35;100.00
26775;BME280;14362;51.902;7.626;2023-04-01T17:20:07;99479.00;;;11.27;100.00
26775;BME280;14362;51.902;7.626;2023-04-01T17:24:25;99489.81;;;11.28;100.00
26775;BME280;14362;51.902;7.626;2023-04-01T17:28:34;99498.09;;;11.10;100.00
26775;BME280;14362;51.902;7.626;2023-04-01T17:32:45;99511.31;;;11.13;100.00
26775;BME280;14362;51.902;7.626;2023-04-01T17:37:02;99520.72;;;11.08;100.00
26775;BME280;14362;51.902;7.626;2023-04-01T17:41:12;99531.13;;;10.96;100.00
26775;BME280;14362;51.902;7.626;2023-04-01T17:45:21;99544.88;;;10.89;100.00
26775;BME280;14362;51.902;7.626;2023-04-01T17:49:29;99555.66;;;10.90;100.00
26775;BME280;14362;51.902;7.626;2023-04-01T17:53:41;99564.06;;;10.51;100.00
26775;BME280;14362;51.902;7.626;2023-04-01T17:57:46;99570.78;;;10.50;100.00
26775;BME280;14362;51.902;7.626;2023-04-01T18:01:59;99596.09;;;10.45;100.00
26775;BME280;14362;51.902;7.626;2023-04-01T18:06:04;99606.56;;;10.36;100.00
26775;BME280;14362;51.902;7.626;2023-04-01T18:10:19;99610.97;;;10.25;100.00
26775;BME280;14362;51.902;7.626;2023-04-01T18:14:48;99623.72;;;10.26;100.00
26775;BME280;14362;51.902;7.626;2023-04-01T18:18:59;99633.25;;;10.25;100.00
26775;BME280;14362;51.902;7.626;2023-04-01T18:23:12;99644.88;;;10.15;100.00
26775;BME280;14362;51.902;7.626;2023-04-01T18:27:21;99659.13;;;10.14;100.00
26775;BME280;14362;51.902;7.626;2023-04-01T18:31:24;99658.75;;;10.03;100.00
26775;BME280;14362;51.902;7.626;2023-04-01T18:35:34;99672.19;;;10.01;100.00
26775;BME280;14362;51.902;7.626;2023-04-01T18:39:48;99688.88;;;9.89;100.00
26775;BME280;14362;51.902;7.626;2023-04-01T18:43:59;99703.38;;;9.95;100.00
26775;BME280;14362;51.902;7.626;2023-04-01T18:48:13;99712.41;;;9.92;100.00
26775;BME280;14362;51.902;7.626;2023-04-01T18:52:20;99725.25;;;9.84;100.00
26775;BME280;14362;51.902;7.626;2023-04-01T18:56:26;99734.53;;;9.76;100.00
26775;BME280;14362;51.902;7.626;2023-04-01T19:00:37;99743.28;;;9.66;100.00
26775;BME280;14362;51.902;7.626;2023-04-01T19:04:43;99751.94;;;9.53;100.00
26775;BME280;14362;51.902;7.626;2023-04-01T19:08:46;99763.75;;;9.50;100.00
26775;BME280;14362;51.902;7.626;2023-04-01T19:13:09;99770.00;;;9.47;100.00
26775;BME280;14362;51.902;7.626;2023-04-01T19:17:22;99785.25;;;9.41;100.00
26775;BME280;14362;51.902;7.626;2023-04-01T19:21:29;99797.25;;;9.33;100.00
26775;BME280;14362;51.902;7.626;2023-04-01T19:25:37;99804.50;;;9.25;100.00
26775;BME280;14362;51.902;7.626;2023-04-01T19:29:48;99813.44;;;9.11;100.00
26775;BME280;14362;51.902;7.626;2023-04-01T19:34:05;99819.66;;;9.08;100.00
26775;BME280;14362;51.902;7.626;2023-04-01T19:38:11;99840.00;;;9.00;100.00
26775;BME280;14362;51.902;7.626;2023-04-01T19:42:21;99836.72;;;8.98;100.00
26775;BME280;14362;51.902;7.626;2023-04-01T19:46:29;99845.88;;;8.98;100.00
26775;BME280;14362;51.902;7.626;2023-04-01T19:50:37;99859.06;;;8.81;100.00
26775;BME280;14362;51.902;7.626;2023-04-01T19:54:44;99867.88;;;8.83;100.00
26775;BME280;14362;51.902;7.626;2023-04-01T19:58:54;99873.94;;;8.76;100.00
26775;BME280;14362;51.902;7.626;2023-04-01T20:03:04;99884.84;;;8.81;100.00
26775;BME280;14362;51.902;7.626;2023-04-01T20:07:14;99887.53;;;8.69;100.00
26775;BME280;14362;51.902;7.626;2023-04-01T20:11:30;99906.84;;;8.66;100.00
26775;BME280;14362;51.902;7.626;2023-04-01T20:15:39;99921.69;;;8.61;100.00
26775;BME280;14362;51.902;7.626;2023-04-01T20:19:42;99926.31;;;8.57;100.00
26775;BME280;14362;51.902;7.626;2023-04-01T20:23:50;99937.75;;;8.47;100.00
26775;BME280;14362;51.902;7.626;2023-04-01T20:27:58;99942.63;;;8.59;100.00
26775;BME280;14362;51.902;7.626;2023-04-01T20:32:06;99959.97;;;8.39;100.00
26775;BME280;14362;51.902;7.626;2023-04-01T20:36:16;99970.56;;;8.54;100.00
26775;BME280;14362;51.902;7.626;2023-04-01T20:40:34;99978.28;;;8.40;100.00
26775;BME280;14362;51.902;7.626;2023-04-01T20:44:41;99996.22;;;8.34;100.00
26775;BME280;14362;51.902;7.626;2023-04-01T20:49:00;99994.59;;;8.24;100.00
26775;BME280;14362;51.902;7.626;2023-04-01T20:53:13;100012.38;;;8.15;100.00
26775;BME280;14362;51.902;7.626;2023-04-01T20:57:20;100013.50;;;8.14;100.00
26775;BME280;14362;51.902;7.626;2023-04-01T21:01:33;100026.44;;;8.10;100.00
26775;BME280;14362;51.902;7.626;2023-04-01T21:06:04;100036.19;;;7.99;100.00
26775;BME280;14362;51.902;7.626;2023-04-01T21:10:20;100055.75;;;7.94;100.00
26775;BME280;14362;51.902;7.626;2023-04-01T21:14:44;100048.41;;;7.90;100.00
26775;BME280;14362;51.902;7.626;2023-04-01T21:19:09;100070.09;;;7.79;100.00
26775;BME280;14362;51.902;7.626;2023-04-01T21:23:28;100080.53;;;7.74;100.00
26775;BME280;14362;51.902;7.626;2023-04-01T21:27:49;100095.69;;;7.76;100.00
26775;BME280;14362;51.902;7.626;2023-04-01T21:32:07;100098.63;;;7.71;100.00
26775;BME280;14362;51.902;7.626;2023-04-01T21:36:25;100113.34;;;7.80;100.00
26775;BME280;14362;51.902;7.626;2023-04-01T21:41:04;100119.69;;;7.72;100.00
26775;BME280;14362;51.902;7.626;2023-04-01T21:45:19;100138.59;;;7.70;100.00
26775;BME280;14362;51.902;7.626;2023-04-01T21:49:48;100138.22;;;7.63;100.00
26775;BME280;14362;51.902;7.626;2023-04-01T21:58:47;100163.66;;;7.57;100.00
26775;BME280;14362;51.902;7.626;2023-04-01T22:03:39;100182.09;;;7.61;100.00
26775;BME280;14362;51.902;7.626;2023-04-01T22:07:55;100178.59;;;7.47;100.00
26775;BME280;14362;51.902;7.626;2023-04-01T22:12:04;100195.41;;;7.51;100.00
26775;BME280;14362;51.902;7.626;2023-04-01T22:16:12;100204.50;;;7.43;100.00
26775;BME280;14362;51.902;7.626;2023-04-01T22:20:23;100208.47;;;7.28;100.00
26775;BME280;14362;51.902;7.626;2023-04-01T22:24:37;100215.78;;;7.46;100.00
26775;BME280;14362;51.902;7.626;2023-04-01T22:28:48;100218.94;;;7.31;100.00
26775;BME280;14362;51.902;7.626;2023-04-01T22:32:57;100234.38;;;7.24;100.00
26775;BME280;14362;51.902;7.626;2023-04-01T22:37:07;100255.53;;;7.20;100.00
26775;BME280;14362;51.902;7.626;2023-04-01T22:41:21;100251.56;;;7.12;100.00
26775;BME280;14362;51.902;7.626;2023-04-01T22:45:43;100273.75;;;7.12;100.00
26775;BME280;14362;51.902;7.626;2023-04-01T22:49:53;100272.38;;;7.10;100.00
26775;BME280;14362;51.902;7.626;2023-04-01T22:54:03;100278.78;;;7.10;100.00